Nearby METAR Reports

 

KLOM - Philly Wings F, Pennsylvania, USA
Distance from station: SW 6mi, 10km
Updated: Tue, 31-Mar-2015 5:15am EDT
Clear
Clear
 Wind from calm
Wind: Calm
Temperature: 32°F , 0°C
Dew Point: 28°F , -2°C
Humidity: 87%
Barometer: 29.88 inHg , 1011.9 hPa
Clouds: Clear
Visibility: 10 miles , 16 km
2015/03/31 09:15 KLOM 310915Z AUTO 00000KT 10SM CLR 00/M02 A2988 RMK AO1
KDYL - Doylestown, Pennsylvania, USA
Distance from station: NNE 10mi, 17km
Updated: Tue, 31-Mar-2015 4:54am EDT
Clear
Clear
 Wind from WSW
Wind: WSW 3 mph , 6 km/h
Temperature: 36°F , 2°C
Dew Point: 27°F , -3°C
Humidity: 70%
Barometer: 29.86 inHg , 1011.2 hPa
Clouds: Clear
Visibility: 10 miles , 16 km
2015/03/31 08:54 KDYL 310854Z AUTO 25003KT 10SM CLR 02/M03 A2986 RMK AO2 SLP113 T00171033 58002
KPNE - Philadelphia/Ne, Pennsylvania, USA
Distance from station: SE 11mi, 18km
Updated: Tue, 31-Mar-2015 4:54am EDT
Clear
Clear
 Wind from WSW
Wind: WSW 5 mph , 7 km/h
Temperature: 37°F , 3°C
Wind Chill: 33°F , 1°C
Dew Point: 23°F , -5°C
Humidity: 56%
Barometer: 29.90 inHg , 1012.5 hPa
Clouds: Clear
Visibility: 10 miles , 16 km
2015/03/31 08:54 KPNE 310854Z AUTO 24004KT 10SM CLR 03/M05 A2990 RMK AO2 SLP125 T00281050 53001 TSNO
 
KPTW - Pottstown, Pennsylvania, USA
Distance from station: W 20mi, 32km
Updated: Tue, 31-Mar-2015 4:54am EDT
Clear
Clear
 Wind from W
Wind: W 3 mph , 6 km/h
Temperature: 36°F , 2°C
Dew Point: 25°F , -4°C
Humidity: 65%
Barometer: 29.89 inHg , 1012.2 hPa
Clouds: Clear
Visibility: 10 miles , 16 km
2015/03/31 08:54 KPTW 310854Z AUTO 27003KT 10SM CLR 02/M04 A2989 RMK AO2 SLP121 T00221039 51004
KTTN - Trenton, New Jersey, USA
Distance from station: ENE 20mi, 32km
Updated: Tue, 31-Mar-2015 4:53am EDT
Partly cloudy
Partly cloudy
 Wind from calm
Wind: Calm
Temperature: 36°F , 2°C
Dew Point: 27°F , -3°C
Humidity: 70%
Barometer: 29.86 inHg , 1011.2 hPa
Clouds: Partly cloudy
Visibility: 10 miles , 16 km
Cloud details: Partly cloudy 6000 ft
2015/03/31 08:53 KTTN 310853Z 00000KT 10SM SCT060 02/M03 A2986 RMK AO2 SLP107 T00171033 55001
KUKT - Quakertown Arp, Pennsylvania, USA
Distance from station: NNW 20mi, 32km
Updated: Tue, 31-Mar-2015 5:35am EDT
Clear
Clear
 Wind from NW
Wind: NW 5 mph , 7 km/h
Temperature: 37°F , 3°C
Wind Chill: 33°F , 1°C
Dew Point: 27°F , -3°C
Humidity: 65%
Barometer: 29.87 inHg , 1011.5 hPa
Clouds: Clear
Visibility: 10 miles , 16 km
2015/03/31 09:35 KUKT 310935Z AUTO 31004KT 10SM CLR 03/M03 A2987 RMK AO1
 
KPHL - Philadelphia, Pennsylvania, USA
Distance from station: S 22mi, 36km
Updated: Tue, 31-Mar-2015 4:54am EDT
Clear
Clear
 Wind from NW
Wind: NW 5 mph , 7 km/h
Temperature: 39°F , 4°C
Wind Chill: 35°F , 2°C
Dew Point: 23°F , -5°C
Humidity: 52%
Barometer: 29.90 inHg , 1012.5 hPa
Clouds: Clear
Visibility: 10 miles , 16 km
2015/03/31 08:54 KPHL 310854Z 32004KT 10SM CLR 04/M05 A2990 RMK AO2 SLP124 T00441050 53001
KVAY - Mount Holly, New Jersey, USA
Distance from station: SE 25mi, 41km
Updated: Tue, 31-Mar-2015 4:54am EDT
Clear
Clear
 Wind from SSW
Wind: SSW 3 mph , 6 km/h
Temperature: 30°F , -1°C
Dew Point: 25°F , -4°C
Humidity: 80%
Barometer: 29.89 inHg , 1012.2 hPa
Clouds: Clear
Visibility: 10 miles , 16 km
2015/03/31 08:54 KVAY 310854Z AUTO 20003KT 10SM CLR M01/M04 A2989 RMK AO2 SLP121 T10061044 53002
KXLL - Allentown Queen, Pennsylvania, USA
Distance from station: NNW 31mi, 49km
Updated: Tue, 31-Mar-2015 5:15am EDT
Clear
Clear
 Wind from WSW
Wind: WSW 5 mph , 7 km/h
Temperature: 37°F , 3°C
Wind Chill: 33°F , 1°C
Dew Point: 27°F , -3°C
Humidity: 65%
Barometer: 29.88 inHg , 1011.9 hPa
Clouds: Clear
Visibility: 10 miles , 16 km
2015/03/31 09:15 KXLL 310915Z AUTO 25004KT 10SM CLR 03/M03 A2988 RMK AO2
 
KWRI - Wrightst/Mcguire, New Jersey, USA
Distance from station: ESE 34mi, 54km
Updated: Tue, 31-Mar-2015 4:58am EDT
Few Clouds
Few Clouds
 Wind from SW
Wind: SW 2 mph , 4 km/h
Temperature: 32°F , 0°C
Dew Point: 27°F , -3°C
Humidity: 80%
Barometer: 29.86 inHg , 1011.2 hPa
Clouds: Few Clouds
Visibility: 10 miles , 16 km
Cloud details: Few Clouds 8000 ft
2015/03/31 08:58 KWRI 310858Z AUTO 23002KT 10SM FEW080 00/M03 A2986 RMK AO2 SLP116 T10051034 55000
KABE - Allentown, Pennsylvania, USA
Distance from station: NNW 35mi, 56km
Updated: Tue, 31-Mar-2015 4:51am EDT
Clear
Clear
 Wind from W
Wind: W 5 mph , 7 km/h
Temperature: 39°F , 4°C
Wind Chill: 35°F , 2°C
Dew Point: 27°F , -3°C
Humidity: 61%
Barometer: 29.86 inHg , 1011.2 hPa
Clouds: Clear
Visibility: 10 miles , 16 km
2015/03/31 08:51 KABE 310851Z 27004KT 10SM CLR 04/M03 A2986 RMK AO2 SLP113 T00391033 55003 $
KMQS - Coatesville, Pennsylvania, USA
Distance from station: WSW 39mi, 63km
Updated: Tue, 31-Mar-2015 5:15am EDT
Clear
Clear
 Wind from WNW
Wind: WNW 3 mph , 6 km/h
Temperature: 37°F , 3°C
Dew Point: 27°F , -3°C
Humidity: 65%
Barometer: 29.89 inHg , 1012.2 hPa
Clouds: Clear
Visibility: 10 miles , 16 km
2015/03/31 09:15 KMQS 310915Z AUTO 30003KT 10SM CLR 03/M03 A2989 RMK AO2
 
KSMQ - Somerville, New Jersey, USA
Distance from station: NE 40mi, 64km
Updated: Tue, 31-Mar-2015 4:53am EDT
Clear
Clear
 Wind from WNW
Wind: WNW 7 mph , 11 km/h
Temperature: 39°F , 4°C
Wind Chill: 34°F , 1°C
Dew Point: 28°F , -2°C
Humidity: 65%
Barometer: 29.84 inHg , 1010.5 hPa
Clouds: Clear
Visibility: 10 miles , 16 km
2015/03/31 08:53 KSMQ 310853Z AUTO 30006KT 10SM CLR 04/M02 A2984 RMK AO2 SLP105 T00441022 56005 TSNO
KILG - Wilmington, Delaware, USA
Distance from station: SSW 42mi, 68km
Updated: Tue, 31-Mar-2015 4:51am EDT
Clear
Clear
 Wind from WNW
Wind: WNW 6 mph , 9 km/h
Temperature: 37°F , 3°C
Wind Chill: 32°F , 0°C
Dew Point: 25°F , -4°C
Humidity: 60%
Barometer: 29.91 inHg , 1012.9 hPa
Clouds: Clear
Visibility: 10 miles , 16 km
2015/03/31 08:51 KILG 310851Z 30005KT 10SM CLR 03/M04 A2991 RMK AO2 SLP126 T00281044 53003
KRDG - Reading, Pennsylvania, USA
Distance from station: WNW 43mi, 70km
Updated: Tue, 31-Mar-2015 4:54am EDT
Clear
Clear
 Wind from WSW
Wind: WSW 6 mph , 9 km/h
Temperature: 36°F , 2°C
Wind Chill: 31°F , -1°C
Dew Point: 27°F , -3°C
Humidity: 70%
Barometer: 29.87 inHg , 1011.5 hPa
Clouds: Clear
Visibility: 10 miles , 16 km
2015/03/31 08:54 KRDG 310854Z AUTO 24005KT 10SM CLR 02/M03 A2987 RMK AO2 SLP121 T00221033 58001
 
KNEL - Lakehurst Nas, New Jersey, USA
Distance from station: ESE 46mi, 74km
Updated: Mon, 06-Oct-2014 4:00pm EDT
NOT Current
Clear
Clear
 Wind from S
Wind: S 15 mph , 24 km/h, Gust: 23 mph , 37 km/h
Temperature: 70°F , 21°C
Dew Point: 46°F , 8°C
Humidity: 43%
Barometer: 30.01 inHg , 1016.3 hPa
Clouds: Clear
Visibility: 10 miles , 16 km
2014/10/06 20:00 KNEL 062000Z AUTO 17013G20KT 10SM CLR 21/08 A3001 RMK AO2 SLP163 T02110083 $
KMJX - Toms River, New Jersey, USA
Distance from station: ESE 50mi, 80km
Updated: Tue, 31-Mar-2015 5:35am EDT
Few Clouds
Few Clouds
 Wind from calm
Wind: Calm
Temperature: 27°F , -3°C
Dew Point: 23°F , -5°C
Humidity: 86%
Barometer: 29.87 inHg , 1011.5 hPa
Clouds: Few Clouds
Visibility: 10 miles , 16 km
Cloud details: Few Clouds 7000 ft
2015/03/31 09:35 KMJX 310935Z AUTO 00000KT 10SM FEW070 M03/M05 A2987 RMK AO1